createdAt,value
2018-10-06T00:01:02.931Z,12.10
2018-10-06T00:03:07.997Z,12.10
2018-10-06T00:05:12.444Z,12.10
2018-10-06T00:07:17.358Z,12.10
2018-10-06T00:09:21.815Z,12.00
2018-10-06T00:11:26.408Z,12.00
2018-10-06T00:13:30.855Z,12.00
2018-10-06T00:15:35.366Z,12.00
2018-10-06T00:17:40.266Z,12.00
2018-10-06T00:19:44.713Z,12.00
2018-10-06T00:21:49.306Z,11.90
2018-10-06T00:23:53.827Z,11.90
2018-10-06T00:25:58.323Z,11.90
2018-10-06T00:28:02.818Z,11.90
2018-10-06T00:30:07.578Z,11.90
2018-10-06T00:32:12.059Z,11.90
2018-10-06T00:34:17.469Z,11.80
2018-10-06T00:36:21.961Z,11.90
2018-10-06T00:38:26.443Z,11.80
2018-10-06T00:40:30.991Z,11.80
2018-10-06T00:42:35.435Z,11.80
2018-10-06T00:44:39.963Z,11.80
2018-10-06T00:46:44.458Z,11.70
2018-10-06T00:48:48.911Z,11.70
2018-10-06T00:50:55.254Z,11.70
2018-10-06T00:53:00.288Z,11.70
2018-10-06T00:55:04.876Z,11.70
2018-10-06T00:57:09.358Z,11.70
2018-10-06T00:59:13.877Z,11.60
2018-10-06T01:01:18.382Z,11.60
2018-10-06T01:03:23.106Z,11.60
2018-10-06T01:05:27.667Z,11.60
2018-10-06T01:07:32.162Z,11.60
2018-10-06T01:09:37.790Z,11.60
2018-10-06T01:11:42.415Z,11.50
2018-10-06T01:13:46.882Z,11.50
2018-10-06T01:15:51.407Z,11.50
2018-10-06T01:17:56.230Z,11.50
2018-10-06T01:20:00.712Z,11.40
2018-10-06T01:22:05.671Z,11.40
2018-10-06T01:24:10.159Z,11.40
2018-10-06T01:26:14.668Z,11.40
2018-10-06T01:28:19.142Z,11.40
2018-10-06T01:30:23.664Z,11.30
2018-10-06T01:32:28.291Z,11.30
2018-10-06T01:34:33.045Z,11.30
2018-10-06T01:36:37.854Z,11.30
2018-10-06T01:38:42.791Z,11.30
2018-10-06T01:40:47.279Z,11.30
2018-10-06T01:42:51.794Z,11.30
2018-10-06T01:44:56.370Z,11.20
2018-10-06T01:47:00.860Z,11.10
2018-10-06T01:49:05.382Z,11.20
2018-10-06T01:51:09.877Z,11.20
2018-10-06T01:53:14.378Z,11.20
2018-10-06T01:55:18.883Z,11.20
2018-10-06T01:57:23.490Z,11.20
2018-10-06T01:59:28.000Z,11.20
2018-10-06T02:01:32.596Z,11.10
2018-10-06T02:03:37.132Z,11.10
2018-10-06T02:05:41.643Z,11.10
2018-10-06T02:07:46.165Z,11.10
2018-10-06T02:09:50.710Z,11.00
2018-10-06T02:11:55.619Z,11.00
2018-10-06T02:14:00.122Z,11.00
2018-10-06T02:16:04.666Z,11.00
2018-10-06T02:18:09.179Z,11.00
2018-10-06T02:20:13.661Z,11.00
2018-10-06T02:22:18.218Z,11.00
2018-10-06T02:24:22.739Z,11.00
2018-10-06T02:26:27.310Z,10.90
2018-10-06T02:28:31.840Z,11.00
2018-10-06T02:30:36.330Z,10.90
2018-10-06T02:32:40.847Z,10.90
2018-10-06T02:34:45.378Z,10.90
2018-10-06T02:36:49.945Z,10.90
2018-10-06T02:38:55.345Z,10.90
2018-10-06T02:41:00.080Z,10.90
2018-10-06T02:43:04.575Z,10.90
2018-10-06T02:45:10.550Z,10.90
2018-10-06T02:47:15.382Z,10.80
2018-10-06T02:49:19.902Z,10.80
2018-10-06T02:51:24.412Z,10.80
2018-10-06T02:53:28.922Z,10.80
2018-10-06T02:55:33.581Z,10.80
2018-10-06T02:57:38.299Z,10.70
2018-10-06T02:59:42.835Z,10.70
2018-10-06T03:01:47.316Z,10.70
2018-10-06T03:03:51.863Z,10.70
2018-10-06T03:05:56.416Z,10.70
2018-10-06T03:08:00.987Z,10.70
2018-10-06T03:10:05.658Z,10.60
2018-10-06T03:12:10.850Z,10.60
2018-10-06T03:14:15.788Z,10.60
2018-10-06T03:16:20.314Z,10.60
2018-10-06T03:18:24.973Z,10.60
2018-10-06T03:20:29.495Z,10.60
2018-10-06T03:22:33.962Z,10.60
2018-10-06T03:24:39.466Z,10.50
2018-10-06T03:26:43.931Z,10.50
2018-10-06T03:28:48.477Z,10.50
2018-10-06T03:30:52.996Z,10.50
2018-10-06T03:32:57.494Z,10.50
2018-10-06T03:35:02.352Z,10.50
2018-10-06T03:37:06.872Z,10.50
2018-10-06T03:39:11.474Z,10.40
2018-10-06T03:41:15.964Z,10.40
2018-10-06T03:43:20.507Z,10.40
2018-10-06T03:45:25.667Z,10.40
2018-10-06T03:47:30.118Z,10.40
2018-10-06T03:49:35.871Z,10.40
2018-10-06T03:51:40.368Z,10.40
2018-10-06T03:53:44.847Z,10.40
2018-10-06T03:55:49.381Z,10.40
2018-10-06T03:57:54.578Z,10.40
2018-10-06T03:59:59.085Z,10.40
2018-10-06T04:02:03.663Z,10.40
2018-10-06T04:04:08.227Z,10.30
2018-10-06T04:06:12.710Z,10.30
2018-10-06T04:08:17.208Z,10.30
2018-10-06T04:10:21.726Z,10.30
2018-10-06T04:12:26.228Z,10.30
2018-10-06T04:14:30.791Z,10.30
2018-10-06T04:16:36.087Z,10.30
2018-10-06T04:18:40.599Z,10.30
2018-10-06T04:20:45.099Z,10.30
2018-10-06T04:22:49.629Z,10.30
2018-10-06T04:24:54.159Z,10.30
2018-10-06T04:26:58.699Z,10.30
2018-10-06T04:29:03.190Z,10.20
2018-10-06T04:31:07.714Z,10.20
2018-10-06T04:33:12.227Z,10.20
2018-10-06T04:35:16.767Z,10.20
2018-10-06T04:37:21.308Z,10.20
2018-10-06T04:39:25.891Z,10.20
2018-10-06T04:41:30.685Z,10.20
2018-10-06T04:43:36.292Z,10.20
2018-10-06T04:45:40.778Z,10.20
2018-10-06T04:47:45.347Z,10.20
2018-10-06T04:49:49.854Z,10.20
2018-10-06T04:51:54.451Z,10.20
2018-10-06T04:53:59.264Z,10.10
2018-10-06T04:56:03.734Z,10.10
2018-10-06T04:58:08.242Z,10.10
2018-10-06T05:00:12.759Z,10.10
2018-10-06T05:02:17.274Z,10.10
2018-10-06T05:04:21.788Z,10.10
2018-10-06T05:06:28.742Z,10.10
2018-10-06T05:08:33.206Z,10.10
2018-10-06T05:10:37.759Z,10.10
2018-10-06T05:12:42.299Z,10.10
2018-10-06T05:14:46.982Z,10.00
2018-10-06T05:16:51.551Z,10.10
2018-10-06T05:18:56.645Z,10.00
2018-10-06T05:21:01.233Z,10.00
2018-10-06T05:23:05.770Z,10.00
2018-10-06T05:25:10.291Z,10.00
2018-10-06T05:27:14.795Z,10.00
2018-10-06T05:29:19.330Z,10.00
2018-10-06T05:31:23.863Z,10.00
2018-10-06T05:33:28.439Z,10.00
2018-10-06T05:35:32.988Z,9.90
2018-10-06T05:37:37.622Z,9.90
2018-10-06T05:39:42.139Z,9.90
2018-10-06T05:41:46.638Z,9.90
2018-10-06T05:43:51.171Z,9.90
2018-10-06T05:45:56.435Z,9.90
2018-10-06T05:48:01.139Z,9.80
2018-10-06T05:50:06.619Z,9.90
2018-10-06T05:52:11.091Z,9.90
2018-10-06T05:54:15.707Z,9.80
2018-10-06T05:56:21.383Z,9.80
2018-10-06T05:58:25.893Z,9.80
2018-10-06T06:00:30.758Z,9.80
2018-10-06T06:02:35.274Z,9.80
2018-10-06T06:04:40.112Z,9.90
2018-10-06T06:06:44.625Z,9.80
2018-10-06T06:08:49.180Z,9.80
2018-10-06T06:10:53.747Z,9.90
2018-10-06T06:12:58.379Z,9.80
2018-10-06T06:15:04.043Z,9.80
2018-10-06T06:17:08.797Z,9.80
2018-10-06T06:19:13.381Z,9.80
2018-10-06T06:21:17.896Z,9.90
2018-10-06T06:23:22.560Z,9.90
2018-10-06T06:25:27.352Z,9.90
2018-10-06T06:27:31.955Z,9.90
2018-10-06T06:29:36.442Z,9.90
2018-10-06T06:31:41.095Z,9.90
2018-10-06T06:33:45.724Z,9.90
2018-10-06T06:35:50.232Z,9.90
2018-10-06T06:37:54.779Z,10.00
2018-10-06T06:39:59.258Z,10.00
2018-10-06T06:42:04.411Z,10.00
2018-10-06T06:44:09.438Z,10.00
2018-10-06T06:46:14.006Z,10.10
2018-10-06T06:48:19.039Z,10.10
2018-10-06T06:50:24.456Z,10.10
2018-10-06T06:52:29.030Z,10.10
2018-10-06T06:54:33.616Z,10.10
2018-10-06T06:56:38.200Z,10.20
2018-10-06T06:58:42.945Z,10.20
2018-10-06T07:00:47.783Z,10.20
2018-10-06T07:02:52.362Z,10.30
2018-10-06T07:04:56.827Z,10.30
2018-10-06T07:07:01.406Z,10.30
2018-10-06T07:09:07.535Z,10.40
2018-10-06T07:11:12.631Z,10.40
2018-10-06T07:13:17.170Z,10.40
2018-10-06T07:15:21.862Z,10.50
2018-10-06T07:17:26.567Z,10.50
2018-10-06T07:19:31.906Z,10.50
2018-10-06T07:21:36.419Z,10.60
2018-10-06T07:23:41.047Z,10.60
2018-10-06T07:25:46.784Z,10.60
2018-10-06T07:27:54.194Z,10.70
2018-10-06T07:30:02.798Z,10.70
2018-10-06T07:32:07.611Z,10.80
2018-10-06T07:34:12.287Z,10.80
2018-10-06T07:36:16.778Z,10.80
2018-10-06T07:38:21.372Z,10.90
2018-10-06T07:40:26.668Z,10.90
2018-10-06T07:42:31.222Z,11.00
2018-10-06T07:44:36.035Z,11.00
2018-10-06T07:46:41.491Z,11.10
2018-10-06T07:48:46.795Z,11.10
2018-10-06T07:50:51.338Z,11.20
2018-10-06T07:52:55.868Z,11.20
2018-10-06T07:55:01.671Z,11.30
2018-10-06T07:57:06.884Z,11.40
2018-10-06T07:59:11.464Z,11.40
2018-10-06T08:01:15.935Z,11.40
2018-10-06T08:03:20.506Z,11.50
2018-10-06T08:05:25.708Z,11.60
2018-10-06T08:07:30.455Z,11.70
2018-10-06T08:09:35.355Z,11.70
2018-10-06T08:11:40.542Z,11.80
2018-10-06T08:13:45.902Z,11.90
2018-10-06T08:15:52.406Z,12.00
2018-10-06T08:17:57.032Z,12.10
2018-10-06T08:20:01.747Z,12.20
2018-10-06T08:22:06.667Z,12.30
2018-10-06T08:24:11.288Z,12.40
2018-10-06T08:26:16.872Z,12.50
2018-10-06T08:28:22.561Z,12.60
2018-10-06T08:30:27.340Z,12.70
2018-10-06T08:32:31.946Z,12.80
2018-10-06T08:34:36.559Z,12.90
2018-10-06T08:36:41.081Z,13.00
2018-10-06T08:38:45.677Z,13.10
2018-10-06T08:40:50.309Z,13.20
2018-10-06T08:42:55.635Z,13.30
2018-10-06T08:45:02.918Z,13.40
2018-10-06T08:47:07.566Z,13.50
2018-10-06T08:49:12.078Z,13.60
2018-10-06T08:51:17.499Z,13.70
2018-10-06T08:53:22.010Z,13.90
2018-10-06T08:55:26.599Z,14.00
2018-10-06T08:57:31.108Z,14.10
2018-10-06T08:59:36.551Z,14.30
2018-10-06T09:01:41.886Z,14.40
2018-10-06T09:03:46.435Z,14.60
2018-10-06T09:05:50.919Z,14.70
2018-10-06T09:07:56.327Z,14.90
2018-10-06T09:10:00.863Z,15.10
2018-10-06T09:12:05.384Z,15.20
2018-10-06T09:14:09.907Z,15.40
2018-10-06T09:16:14.744Z,15.60
2018-10-06T09:18:19.361Z,15.70
2018-10-06T09:20:23.883Z,15.90
2018-10-06T09:22:28.455Z,16.10
2018-10-06T09:24:33.079Z,16.30
2018-10-06T09:26:38.175Z,16.50
2018-10-06T09:28:42.691Z,16.60
2018-10-06T09:30:47.599Z,16.80
2018-10-06T09:32:52.131Z,17.00
2018-10-06T09:34:58.106Z,17.20
2018-10-06T09:37:02.820Z,17.40
2018-10-06T09:39:09.513Z,17.60
2018-10-06T09:41:14.031Z,17.70
2018-10-06T09:43:18.587Z,17.90
2018-10-06T09:45:23.291Z,18.10
2018-10-06T09:47:28.564Z,18.30
2018-10-06T09:49:33.486Z,18.50
2018-10-06T09:51:38.107Z,18.70
2018-10-06T09:53:43.018Z,18.80
2018-10-06T09:55:48.153Z,19.10
2018-10-06T09:57:52.802Z,19.20
2018-10-06T09:59:58.271Z,19.50
2018-10-06T10:02:04.878Z,19.60
2018-10-06T10:04:11.526Z,19.80
2018-10-06T10:06:16.146Z,20.00
2018-10-06T10:08:20.701Z,20.20
2018-10-06T10:10:29.946Z,20.40
2018-10-06T10:12:34.694Z,20.50
2018-10-06T10:14:39.325Z,20.80
2018-10-06T10:16:45.323Z,20.90
2018-10-06T10:18:49.875Z,21.10
2018-10-06T10:20:54.418Z,21.30
2018-10-06T10:22:58.987Z,21.50
2018-10-06T10:25:03.614Z,21.70
2018-10-06T10:27:08.180Z,21.90
2018-10-06T10:29:13.311Z,22.00
2018-10-06T10:31:17.998Z,22.20
2018-10-06T10:33:22.573Z,22.40
2018-10-06T10:35:27.190Z,22.60
2018-10-06T10:37:31.810Z,22.70
2018-10-06T10:39:36.505Z,22.90
2018-10-06T10:41:42.030Z,23.00
2018-10-06T10:43:46.676Z,23.20
2018-10-06T10:45:51.240Z,23.40
2018-10-06T10:47:56.031Z,23.50
2018-10-06T10:50:00.667Z,23.70
2018-10-06T10:52:05.314Z,23.90
2018-10-06T10:54:10.471Z,24.00
2018-10-06T10:56:15.001Z,24.10
2018-10-06T10:58:19.584Z,24.30
2018-10-06T11:00:24.223Z,24.40
2018-10-06T11:02:28.732Z,24.50
2018-10-06T11:04:34.310Z,24.60
2018-10-06T11:06:40.909Z,24.80
2018-10-06T11:08:47.793Z,24.90
2018-10-06T11:10:53.777Z,25.00
2018-10-06T11:13:01.179Z,25.10
2018-10-06T11:15:09.659Z,25.20
2018-10-06T11:17:18.238Z,25.30
2018-10-06T11:19:28.002Z,25.40
2018-10-06T11:21:36.117Z,25.50
2018-10-06T11:23:41.259Z,25.60
2018-10-06T11:25:46.483Z,25.70
2018-10-06T11:27:51.052Z,25.70
2018-10-06T11:29:55.884Z,25.80
2018-10-06T11:32:00.675Z,25.90
2018-10-06T11:34:06.966Z,26.00
2018-10-06T11:36:12.179Z,26.10
2018-10-06T11:38:16.782Z,26.10
2018-10-06T11:40:21.394Z,26.20
2018-10-06T11:42:25.999Z,26.30
2018-10-06T11:44:30.810Z,26.30
2018-10-06T11:46:36.115Z,26.40
2018-10-06T11:48:41.598Z,26.50
2018-10-06T11:50:47.204Z,26.50
2018-10-06T11:52:53.284Z,26.50
2018-10-06T11:54:58.222Z,26.60
2018-10-06T11:57:04.346Z,26.60
2018-10-06T11:59:08.865Z,26.60
2018-10-06T12:01:13.782Z,26.60
2018-10-06T12:03:18.340Z,26.60
2018-10-06T12:05:24.435Z,26.70
2018-10-06T12:07:28.991Z,26.70
2018-10-06T12:09:34.086Z,26.70
2018-10-06T12:11:39.336Z,26.70
2018-10-06T12:13:45.045Z,26.70
2018-10-06T12:15:49.978Z,26.70
2018-10-06T12:17:55.210Z,26.70
2018-10-06T12:20:00.470Z,26.70
2018-10-06T12:22:05.070Z,26.70
2018-10-06T12:24:09.546Z,26.80
2018-10-06T12:26:15.136Z,26.80
2018-10-06T12:28:19.744Z,26.80
2018-10-06T12:30:24.635Z,26.90
2018-10-06T12:32:30.204Z,26.90
2018-10-06T12:34:35.266Z,26.90
2018-10-06T12:36:40.079Z,26.90
2018-10-06T12:38:45.118Z,27.00
2018-10-06T12:40:49.707Z,27.10
2018-10-06T12:42:54.614Z,27.10
2018-10-06T12:45:00.762Z,27.10
2018-10-06T12:47:05.363Z,27.20
2018-10-06T12:49:10.446Z,27.20
2018-10-06T12:51:15.390Z,27.20
2018-10-06T12:53:20.134Z,27.20
2018-10-06T12:55:25.148Z,27.20
2018-10-06T12:57:30.296Z,27.30
2018-10-06T12:59:34.877Z,27.30
2018-10-06T13:01:39.850Z,27.40
2018-10-06T13:03:44.386Z,27.40
2018-10-06T13:05:50.516Z,27.40
2018-10-06T13:07:55.847Z,27.50
2018-10-06T13:10:00.547Z,27.50
2018-10-06T13:12:05.067Z,27.50
2018-10-06T13:14:09.877Z,27.50
2018-10-06T13:16:14.570Z,27.60
2018-10-06T13:18:20.357Z,27.60
2018-10-06T13:20:24.964Z,27.60
2018-10-06T13:22:30.562Z,27.60
2018-10-06T13:24:35.592Z,27.60
2018-10-06T13:26:42.103Z,27.60
2018-10-06T13:28:47.394Z,27.60
2018-10-06T13:30:53.370Z,27.70
2018-10-06T13:32:59.104Z,27.60
2018-10-06T13:35:06.565Z,27.60
2018-10-06T13:37:11.808Z,27.70
2018-10-06T13:39:17.810Z,27.70
2018-10-06T13:41:23.064Z,27.70
2018-10-06T13:45:39.895Z,27.60
2018-10-06T13:47:45.408Z,27.60
2018-10-06T13:49:50.153Z,27.60
2018-10-06T13:51:56.365Z,27.50
2018-10-06T13:54:01.987Z,27.60
2018-10-06T13:56:08.477Z,27.50
2018-10-06T13:58:13.696Z,27.50
2018-10-06T14:00:18.773Z,27.50
2018-10-06T14:02:23.777Z,27.50
2018-10-06T14:04:28.328Z,27.50
2018-10-06T14:06:34.013Z,27.40
2018-10-06T14:08:38.566Z,27.40
2018-10-06T14:10:43.367Z,27.40
2018-10-06T14:12:47.910Z,27.40
2018-10-06T14:14:52.542Z,27.40
2018-10-06T14:16:57.095Z,27.40
2018-10-06T14:19:01.654Z,27.40
2018-10-06T14:21:06.676Z,27.40
2018-10-06T14:23:11.223Z,27.40
2018-10-06T14:25:15.719Z,27.40
2018-10-06T14:27:20.264Z,27.30
2018-10-06T14:29:24.924Z,27.30
2018-10-06T14:31:29.423Z,27.30
2018-10-06T14:33:33.939Z,27.20
2018-10-06T14:35:38.456Z,27.20
2018-10-06T14:37:44.061Z,27.20
2018-10-06T14:39:48.587Z,27.20
2018-10-06T14:41:53.203Z,27.10
2018-10-06T14:43:57.717Z,27.10
2018-10-06T14:46:02.200Z,27.00
2018-10-06T14:48:06.931Z,27.00
2018-10-06T14:50:11.504Z,27.00
2018-10-06T14:52:16.029Z,26.90
2018-10-06T14:54:20.544Z,26.90
2018-10-06T14:56:25.046Z,26.90
2018-10-06T14:58:29.607Z,26.90
2018-10-06T15:00:34.140Z,26.90
2018-10-06T15:02:38.643Z,26.80
2018-10-06T15:04:43.164Z,26.80
2018-10-06T15:06:47.715Z,26.80
2018-10-06T15:08:52.286Z,26.70
2018-10-06T15:10:56.811Z,26.60
2018-10-06T15:13:01.341Z,26.60
2018-10-06T15:15:07.131Z,26.60
2018-10-06T15:17:11.724Z,26.50
2018-10-06T15:19:16.222Z,26.50
2018-10-06T15:21:20.797Z,26.40
2018-10-06T15:23:25.251Z,26.30
2018-10-06T15:25:29.767Z,26.30
2018-10-06T15:27:34.327Z,26.30
2018-10-06T15:29:38.847Z,26.20
2018-10-06T15:31:43.370Z,26.10
2018-10-06T15:33:47.897Z,26.10
2018-10-06T15:35:52.433Z,26.00
2018-10-06T15:37:57.114Z,26.00
2018-10-06T15:40:01.571Z,25.90
2018-10-06T15:42:06.242Z,25.90
2018-10-06T15:44:10.767Z,25.80
2018-10-06T15:46:15.827Z,25.70
2018-10-06T15:48:20.634Z,25.70
2018-10-06T15:50:25.137Z,25.60
2018-10-06T15:52:29.639Z,25.50
2018-10-06T15:54:34.150Z,25.40
2018-10-06T15:56:38.718Z,25.30
2018-10-06T15:58:44.039Z,25.30
2018-10-06T16:00:48.635Z,25.20
2018-10-06T16:02:54.098Z,25.20
2018-10-06T16:04:58.588Z,25.10
2018-10-06T16:07:03.128Z,25.00
2018-10-06T16:09:08.382Z,25.00
2018-10-06T16:11:12.878Z,24.90
2018-10-06T16:13:17.402Z,24.80
2018-10-06T16:15:21.946Z,24.70
2018-10-06T16:17:26.446Z,24.70
2018-10-06T16:19:30.982Z,24.50
2018-10-06T16:21:35.591Z,24.40
2018-10-06T16:23:40.076Z,24.30
2018-10-06T16:25:44.587Z,24.20
2018-10-06T16:27:49.079Z,24.20
2018-10-06T16:29:53.639Z,24.10
2018-10-06T16:31:58.115Z,24.00
2018-10-06T16:34:02.644Z,23.90
2018-10-06T16:36:08.268Z,23.90
2018-10-06T16:38:12.763Z,23.80
2018-10-06T16:40:17.288Z,23.70
2018-10-06T16:42:22.403Z,23.70
2018-10-06T16:44:26.977Z,23.60
2018-10-06T16:46:31.543Z,23.50
2018-10-06T16:48:36.090Z,23.40
2018-10-06T16:50:40.883Z,23.30
2018-10-06T16:52:45.342Z,23.30
2018-10-06T16:54:49.883Z,23.20
2018-10-06T16:56:54.366Z,23.10
2018-10-06T16:58:58.896Z,23.00
2018-10-06T17:01:03.375Z,22.90
2018-10-06T17:03:08.818Z,22.90
2018-10-06T17:05:13.345Z,22.80
2018-10-06T17:07:17.939Z,22.70
2018-10-06T17:09:22.504Z,22.70
2018-10-06T17:11:28.148Z,22.60
2018-10-06T17:13:33.238Z,22.50
2018-10-06T17:15:37.779Z,22.40
2018-10-06T17:17:46.083Z,22.40
2018-10-06T17:19:57.473Z,22.30
2018-10-06T17:22:04.196Z,22.20
2018-10-06T17:24:08.972Z,22.20
2018-10-06T17:26:13.464Z,22.10
2018-10-06T17:28:18.005Z,22.00
2018-10-06T17:30:22.543Z,21.90
2018-10-06T17:32:27.161Z,21.90
2018-10-06T17:34:33.219Z,21.80
2018-10-06T17:36:37.710Z,21.80
2018-10-06T17:38:42.324Z,21.70
2018-10-06T17:40:47.856Z,21.60
2018-10-06T17:42:52.931Z,21.60
2018-10-06T17:44:58.462Z,21.50
2018-10-06T17:47:03.713Z,21.40
2018-10-06T17:49:08.251Z,21.40
2018-10-06T17:51:12.718Z,21.40
2018-10-06T17:53:17.244Z,21.30
2018-10-06T17:55:22.708Z,21.20
2018-10-06T17:57:27.307Z,21.20
2018-10-06T17:59:32.350Z,21.10
2018-10-06T18:01:36.825Z,21.10
2018-10-06T18:03:42.050Z,20.90
2018-10-06T18:05:46.585Z,20.90
2018-10-06T18:07:52.238Z,20.90
2018-10-06T18:09:57.411Z,20.80
2018-10-06T18:12:02.094Z,20.80
2018-10-06T18:14:07.282Z,20.80
2018-10-06T18:16:12.446Z,20.70
2018-10-06T18:18:19.513Z,20.60
2018-10-06T18:20:27.092Z,20.60
2018-10-06T18:22:31.474Z,20.60
2018-10-06T18:24:35.967Z,20.50
2018-10-06T18:26:40.655Z,20.50
2018-10-06T18:28:45.118Z,20.40
2018-10-06T18:30:49.727Z,20.40
2018-10-06T18:32:54.298Z,20.30
2018-10-06T18:34:58.938Z,20.30
2018-10-06T18:37:03.599Z,20.20
2018-10-06T18:39:08.582Z,20.20
2018-10-06T18:43:14.275Z,20.10
2018-10-06T18:45:18.894Z,20.00
2018-10-06T18:47:23.384Z,19.90
2018-10-06T18:49:27.915Z,19.90
2018-10-06T18:51:32.482Z,19.90
2018-10-06T18:53:37.080Z,19.80
2018-10-06T18:55:42.436Z,19.70
2018-10-06T18:57:46.975Z,19.70
2018-10-06T18:59:51.490Z,19.70
2018-10-06T19:01:56.270Z,19.60
2018-10-06T19:04:00.869Z,19.50
2018-10-06T19:06:05.323Z,19.50
2018-10-06T19:08:09.883Z,19.50
2018-10-06T19:10:14.434Z,19.40
2018-10-06T19:12:18.950Z,19.40
2018-10-06T19:14:23.646Z,19.40
2018-10-06T19:16:28.245Z,19.30
2018-10-06T19:18:33.843Z,19.30
2018-10-06T19:20:38.396Z,19.20
2018-10-06T19:22:43.002Z,19.20
2018-10-06T19:24:47.538Z,19.10
2018-10-06T19:26:52.303Z,19.10
2018-10-06T19:28:56.783Z,19.00
2018-10-06T19:31:01.294Z,19.00
2018-10-06T19:33:06.046Z,19.00
2018-10-06T19:35:10.571Z,18.90
2018-10-06T19:37:15.379Z,18.80
2018-10-06T19:39:19.899Z,18.80
2018-10-06T19:41:24.413Z,18.80
2018-10-06T19:43:28.914Z,18.70
2018-10-06T19:45:34.684Z,18.70
2018-10-06T19:47:40.226Z,18.70
2018-10-06T19:49:44.739Z,18.60
2018-10-06T19:51:49.245Z,18.60
2018-10-06T19:53:54.874Z,18.50
2018-10-06T19:55:59.390Z,18.50
2018-10-06T19:58:03.910Z,18.40
2018-10-06T20:00:08.444Z,18.50
2018-10-06T20:02:13.880Z,18.40
2018-10-06T20:04:18.448Z,18.40
2018-10-06T20:06:22.906Z,18.30
2018-10-06T20:08:27.444Z,18.30
2018-10-06T20:10:32.054Z,18.20
2018-10-06T20:12:37.291Z,18.20
2018-10-06T20:14:41.802Z,18.10
2018-10-06T20:16:46.398Z,18.10
2018-10-06T20:18:50.970Z,18.00
2018-10-06T20:20:55.575Z,18.00
2018-10-06T20:23:00.783Z,17.90
2018-10-06T20:25:05.484Z,17.90
2018-10-06T20:27:10.545Z,17.80
2018-10-06T20:29:15.636Z,17.80
2018-10-06T20:31:20.392Z,17.80
2018-10-06T20:33:24.922Z,17.80
2018-10-06T20:35:29.952Z,17.70
2018-10-06T20:37:34.831Z,17.70
2018-10-06T20:39:39.652Z,17.60
2018-10-06T20:41:44.528Z,17.60
2018-10-06T20:43:49.331Z,17.50
2018-10-06T20:45:54.403Z,17.50
2018-10-06T20:47:58.944Z,17.50
2018-10-06T20:50:03.452Z,17.50
2018-10-06T20:52:08.215Z,17.40
2018-10-06T20:54:12.751Z,17.40
2018-10-06T20:56:18.185Z,17.30
2018-10-06T20:58:23.281Z,17.30
2018-10-06T21:00:27.911Z,17.30
2018-10-06T21:02:33.214Z,17.20
2018-10-06T21:04:38.209Z,17.20
2018-10-06T21:06:43.247Z,17.20
2018-10-06T21:08:48.923Z,17.10
2018-10-06T21:10:53.494Z,17.10
2018-10-06T21:12:58.807Z,17.10
2018-10-06T21:15:03.604Z,17.00
2018-10-06T21:17:08.866Z,17.00
2018-10-06T21:19:13.952Z,17.00
2018-10-06T21:21:18.811Z,16.90
2018-10-06T21:23:24.487Z,16.90
2018-10-06T21:25:29.310Z,16.90
2018-10-06T21:27:33.882Z,16.80
2018-10-06T21:29:40.391Z,16.80
2018-10-06T21:31:49.739Z,16.80
2018-10-06T21:33:56.231Z,16.70
2018-10-06T21:36:01.628Z,16.70
2018-10-06T21:38:06.258Z,16.60
2018-10-06T21:40:10.785Z,16.60
2018-10-06T21:42:16.590Z,16.60
2018-10-06T21:44:21.304Z,16.60
2018-10-06T21:46:27.153Z,16.50
2018-10-06T21:48:32.553Z,16.50
2018-10-06T21:50:37.334Z,16.50
2018-10-06T21:52:42.599Z,16.40
2018-10-06T21:54:47.351Z,16.40
2018-10-06T21:56:51.847Z,16.40
2018-10-06T21:58:56.626Z,16.40
2018-10-06T22:01:06.299Z,16.30
2018-10-06T22:03:10.905Z,16.30
2018-10-06T22:05:16.544Z,16.30
2018-10-06T22:07:21.204Z,16.20
2018-10-06T22:09:26.055Z,16.30
2018-10-06T22:11:30.804Z,16.20
2018-10-06T22:13:35.446Z,16.20
2018-10-06T22:15:40.456Z,16.10
2018-10-06T22:17:45.746Z,16.10
2018-10-06T22:19:50.962Z,16.00
2018-10-06T22:21:57.010Z,16.00
2018-10-06T22:24:01.574Z,16.00
2018-10-06T22:26:06.502Z,16.00
2018-10-06T22:28:11.042Z,15.90
2018-10-06T22:30:16.830Z,15.90
2018-10-06T22:32:21.319Z,15.90
2018-10-06T22:34:26.649Z,15.80
2018-10-06T22:36:31.143Z,15.90
2018-10-06T22:38:36.819Z,15.80
2018-10-06T22:40:41.416Z,15.80
2018-10-06T22:42:46.307Z,15.80
2018-10-06T22:44:50.836Z,15.70
2018-10-06T22:46:55.355Z,15.70
2018-10-06T22:48:59.923Z,15.70
2018-10-06T22:51:04.418Z,15.70
2018-10-06T22:53:09.046Z,15.60
2018-10-06T22:55:13.604Z,15.60
2018-10-06T22:57:18.099Z,15.60
2018-10-06T22:59:22.772Z,15.60
2018-10-06T23:01:27.746Z,15.60
2018-10-06T23:03:33.479Z,15.60
2018-10-06T23:05:38.958Z,15.60
2018-10-06T23:07:43.583Z,15.50
2018-10-06T23:09:48.112Z,15.50
2018-10-06T23:11:52.621Z,15.50
2018-10-06T23:13:58.076Z,15.50
2018-10-06T23:16:05.479Z,15.50
2018-10-06T23:18:11.716Z,15.40
2018-10-06T23:20:16.690Z,15.40
2018-10-06T23:22:21.547Z,15.40
2018-10-06T23:24:26.095Z,15.40
2018-10-06T23:26:30.631Z,15.40
2018-10-06T23:28:35.179Z,15.40
2018-10-06T23:30:39.739Z,15.30
2018-10-06T23:32:44.295Z,15.30
2018-10-06T23:34:48.902Z,15.30
2018-10-06T23:36:53.874Z,15.30
2018-10-06T23:38:58.507Z,15.20
2018-10-06T23:41:04.250Z,15.20
2018-10-06T23:43:10.641Z,15.20
2018-10-06T23:45:15.162Z,15.20
2018-10-06T23:47:20.615Z,15.20
2018-10-06T23:49:27.693Z,15.20
2018-10-06T23:51:33.931Z,15.10
2018-10-06T23:53:38.544Z,15.10
2018-10-06T23:55:43.415Z,15.10
2018-10-06T23:57:47.909Z,15.10
2018-10-06T23:59:52.540Z,15.10
